createdAt,value
2018-10-18T00:03:57.668Z,14.96
2018-10-18T00:08:04.689Z,14.91
2018-10-18T00:12:11.770Z,14.85
2018-10-18T00:16:18.755Z,14.81
2018-10-18T00:20:25.780Z,14.70
2018-10-18T00:24:32.831Z,14.72
2018-10-18T00:28:39.856Z,14.49
2018-10-18T00:32:46.903Z,14.27
2018-10-18T00:36:53.902Z,14.28
2018-10-18T00:41:00.899Z,14.35
2018-10-18T00:45:09.930Z,14.25
2018-10-18T00:49:16.987Z,14.20
2018-10-18T00:53:23.986Z,14.06
2018-10-18T00:57:31.009Z,14.05
2018-10-18T01:01:38.255Z,13.93
2018-10-18T01:05:45.279Z,14.05
2018-10-18T01:09:52.366Z,13.95
2018-10-18T01:13:59.402Z,14.02
2018-10-18T01:18:06.662Z,13.92
2018-10-18T01:22:13.547Z,13.84
2018-10-18T01:26:20.537Z,13.94
2018-10-18T01:30:29.974Z,13.81
2018-10-18T01:34:37.017Z,13.67
2018-10-18T01:38:44.042Z,13.52
2018-10-18T01:42:51.078Z,13.58
2018-10-18T01:46:58.158Z,13.57
2018-10-18T01:51:05.210Z,13.42
2018-10-18T01:55:12.254Z,13.44
2018-10-18T01:59:19.357Z,13.44
2018-10-18T02:03:26.420Z,13.44
2018-10-18T02:07:33.421Z,13.43
2018-10-18T02:11:40.814Z,13.48
2018-10-18T02:15:47.845Z,13.35
2018-10-18T02:19:54.943Z,13.46
2018-10-18T02:24:02.062Z,13.35
2018-10-18T02:28:08.987Z,13.34
2018-10-18T02:32:16.045Z,13.27
2018-10-18T02:36:23.108Z,13.27
2018-10-18T02:40:30.124Z,13.19
2018-10-18T02:44:37.151Z,13.23
2018-10-18T02:48:44.224Z,13.17
2018-10-18T02:52:51.251Z,13.17
2018-10-18T02:56:58.250Z,13.15
2018-10-18T03:01:05.339Z,13.07
2018-10-18T03:05:12.379Z,12.95
2018-10-18T03:09:19.416Z,13.00
2018-10-18T03:13:26.485Z,12.96
2018-10-18T03:17:33.488Z,12.91
2018-10-18T03:21:40.571Z,12.93
2018-10-18T03:25:47.599Z,12.89
2018-10-18T03:29:54.635Z,12.84
2018-10-18T03:34:01.650Z,12.84
2018-10-18T03:38:08.669Z,12.85
2018-10-18T03:42:15.758Z,12.85
2018-10-18T03:46:22.678Z,12.85
2018-10-18T03:50:29.681Z,12.88
2018-10-18T03:54:36.708Z,12.98
2018-10-18T03:58:43.735Z,12.90
2018-10-18T04:02:50.770Z,12.68
2018-10-18T04:06:57.764Z,12.68
2018-10-18T04:11:04.801Z,12.66
2018-10-18T04:15:11.833Z,12.57
2018-10-18T04:19:18.835Z,12.60
2018-10-18T04:23:35.844Z,12.54
2018-10-18T04:27:42.861Z,12.66
2018-10-18T04:31:49.899Z,12.54
2018-10-18T04:35:56.944Z,12.59
2018-10-18T04:40:03.948Z,12.65
2018-10-18T04:44:11.027Z,12.73
2018-10-18T04:48:18.220Z,12.81
2018-10-18T04:52:25.102Z,12.81
2018-10-18T04:56:32.129Z,12.89
2018-10-18T05:00:39.176Z,12.89
2018-10-18T05:05:44.003Z,13.08
2018-10-18T05:09:51.022Z,13.16
2018-10-18T05:13:58.033Z,13.03
2018-10-18T05:18:05.122Z,13.03
2018-10-18T05:22:12.220Z,12.95
2018-10-18T05:26:19.391Z,13.02
2018-10-18T05:30:26.443Z,13.05
2018-10-18T05:34:33.448Z,13.06
2018-10-18T05:38:40.468Z,13.07
2018-10-18T05:42:47.472Z,13.32
2018-10-18T05:46:54.581Z,13.27
2018-10-18T05:51:01.581Z,13.75
2018-10-18T05:55:10.696Z,13.58
2018-10-18T05:59:22.637Z,13.44
2018-10-18T06:03:32.276Z,13.51
2018-10-18T06:07:39.431Z,13.56
2018-10-18T06:11:46.630Z,13.67
2018-10-18T06:15:53.804Z,13.86
2018-10-18T06:20:00.863Z,13.81
2018-10-18T06:24:07.883Z,13.84
2018-10-18T06:28:14.919Z,13.79
2018-10-18T06:32:21.961Z,13.83
2018-10-18T06:36:28.981Z,13.83
2018-10-18T06:40:37.064Z,13.91
2018-10-18T06:44:44.131Z,13.98
2018-10-18T06:48:51.311Z,14.11
2018-10-18T06:52:58.328Z,14.08
2018-10-18T06:57:05.901Z,14.11
2018-10-18T07:01:12.984Z,14.48
2018-10-18T07:05:20.214Z,14.30
2018-10-18T07:09:27.315Z,14.28
2018-10-18T07:13:34.475Z,14.36
2018-10-18T07:17:42.410Z,14.37
2018-10-18T07:21:51.462Z,14.61
2018-10-18T07:25:58.590Z,14.53
2018-10-18T07:30:06.592Z,14.57
2018-10-18T07:34:13.741Z,14.64
2018-10-18T07:38:20.920Z,14.67
2018-10-18T07:42:28.549Z,14.72
2018-10-18T07:46:35.823Z,14.82
2018-10-18T07:50:43.101Z,15.28
2018-10-18T07:54:50.442Z,15.22
2018-10-18T07:58:58.009Z,15.48
2018-10-18T08:03:05.541Z,15.57
2018-10-18T08:07:12.639Z,15.63
2018-10-18T08:11:19.659Z,15.79
2018-10-18T08:15:26.699Z,15.77
2018-10-18T08:19:33.699Z,15.75
2018-10-18T08:23:40.721Z,15.86
2018-10-18T08:27:47.858Z,16.45
2018-10-18T08:31:54.947Z,16.28
2018-10-18T08:36:01.953Z,16.72
2018-10-18T08:40:10.217Z,16.17
2018-10-18T08:44:17.318Z,16.23
2018-10-18T08:48:24.315Z,16.71
2018-10-18T08:52:31.303Z,16.32
2018-10-18T08:56:38.294Z,16.58
2018-10-18T09:00:45.416Z,16.37
2018-10-18T09:04:52.665Z,16.33
2018-10-18T09:08:59.851Z,16.49
2018-10-18T09:13:07.180Z,16.68
2018-10-18T09:17:14.184Z,16.54
2018-10-18T09:21:21.436Z,16.75
2018-10-18T09:25:28.646Z,16.97
2018-10-18T09:29:35.732Z,17.07
2018-10-18T09:33:42.805Z,17.02
2018-10-18T09:37:49.808Z,17.14
2018-10-18T09:41:56.854Z,17.38
2018-10-18T09:46:03.920Z,17.49
2018-10-18T09:50:12.404Z,17.64
2018-10-18T09:54:19.832Z,17.97
2018-10-18T09:58:27.011Z,18.03
2018-10-18T10:02:55.874Z,18.01
2018-10-18T10:07:02.967Z,18.30
2018-10-18T10:11:10.037Z,18.29
2018-10-18T10:15:17.310Z,18.56
2018-10-18T10:19:24.855Z,18.50
2018-10-18T10:23:32.010Z,18.61
2018-10-18T10:27:39.291Z,18.69
2018-10-18T10:31:46.542Z,19.03
2018-10-18T10:35:53.590Z,19.18
2018-10-18T10:40:00.805Z,19.23
2018-10-18T10:44:10.256Z,19.51
2018-10-18T10:48:19.570Z,19.50
2018-10-18T10:52:26.629Z,19.83
2018-10-18T10:56:33.937Z,19.93
2018-10-18T11:01:07.255Z,19.97
2018-10-18T11:05:14.427Z,20.09
2018-10-18T11:09:21.605Z,20.15
2018-10-18T11:13:29.977Z,19.97
2018-10-18T11:17:37.016Z,20.05
2018-10-18T11:21:44.148Z,20.25
2018-10-18T11:25:51.299Z,20.54
2018-10-18T11:29:58.371Z,20.49
2018-10-18T11:34:05.569Z,20.72
2018-10-18T11:38:13.369Z,21.28
2018-10-18T11:42:20.652Z,20.82
2018-10-18T11:46:27.648Z,21.58
2018-10-18T11:50:34.598Z,21.84
2018-10-18T11:54:41.832Z,22.02
2018-10-18T11:58:49.061Z,22.03
2018-10-18T12:02:56.142Z,22.29
2018-10-18T12:07:03.173Z,22.84
2018-10-18T12:11:10.279Z,22.84
2018-10-18T12:15:17.253Z,23.21
2018-10-18T12:19:24.283Z,23.30
2018-10-18T12:23:31.361Z,23.12
2018-10-18T12:27:38.504Z,23.44
2018-10-18T12:31:45.738Z,23.31
2018-10-18T12:35:52.900Z,23.12
2018-10-18T12:40:00.006Z,23.07
2018-10-18T12:44:07.152Z,22.99
2018-10-18T12:48:14.275Z,21.81
2018-10-18T12:52:22.654Z,22.51
2018-10-18T12:56:29.969Z,22.43
2018-10-18T13:00:37.250Z,22.35
2018-10-18T13:04:44.735Z,22.53
2018-10-18T13:08:51.930Z,21.48
2018-10-18T13:12:59.147Z,22.05
2018-10-18T13:17:06.733Z,21.96
2018-10-18T13:21:13.990Z,22.20
2018-10-18T13:25:21.246Z,22.06
2018-10-18T13:29:28.471Z,21.39
2018-10-18T13:33:35.651Z,21.81
2018-10-18T13:37:42.796Z,21.44
2018-10-18T13:41:49.829Z,21.26
2018-10-18T13:45:57.023Z,20.95
2018-10-18T13:50:04.361Z,20.64
2018-10-18T13:54:11.688Z,20.45
2018-10-18T13:58:18.864Z,20.40
2018-10-18T14:02:26.154Z,20.16
2018-10-18T14:06:33.323Z,19.97
2018-10-18T14:10:40.614Z,19.97
2018-10-18T14:14:47.886Z,19.90
2018-10-18T14:18:55.050Z,19.68
2018-10-18T14:23:02.299Z,19.82
2018-10-18T14:27:09.455Z,19.56
2018-10-18T14:31:16.635Z,19.64
2018-10-18T14:35:23.904Z,19.43
2018-10-18T14:39:31.194Z,19.33
2018-10-18T14:43:38.690Z,19.31
2018-10-18T14:47:45.753Z,19.53
2018-10-18T14:51:52.778Z,19.39
2018-10-18T14:55:59.821Z,19.12
2018-10-18T15:00:08.422Z,19.13
2018-10-18T15:04:15.604Z,19.02
2018-10-18T15:08:22.656Z,18.95
2018-10-18T15:12:29.699Z,18.99
2018-10-18T15:16:36.837Z,18.82
2018-10-18T15:20:44.891Z,18.69
2018-10-18T15:24:51.934Z,18.79
2018-10-18T15:28:59.064Z,18.64
2018-10-18T15:33:06.114Z,18.64
2018-10-18T15:37:13.184Z,18.56
2018-10-18T15:41:20.445Z,18.42
2018-10-18T15:45:27.532Z,18.38
2018-10-18T15:49:34.579Z,18.28
2018-10-18T15:53:41.848Z,18.09
2018-10-18T15:57:48.778Z,18.04
2018-10-18T16:01:55.845Z,18.13
2018-10-18T16:06:03.075Z,17.96
2018-10-18T16:10:10.996Z,17.79
2018-10-18T16:14:18.101Z,17.80
2018-10-18T16:18:25.114Z,17.71
2018-10-18T16:22:32.172Z,17.66
2018-10-18T16:26:39.296Z,17.53
2018-10-18T16:30:46.183Z,17.40
2018-10-18T16:34:53.284Z,17.30
2018-10-18T16:39:03.111Z,17.29
2018-10-18T16:43:10.315Z,17.13
2018-10-18T16:47:17.414Z,17.08
2018-10-18T16:51:24.527Z,16.95
2018-10-18T16:55:31.593Z,16.88
2018-10-18T16:59:38.606Z,16.81
2018-10-18T17:03:45.662Z,16.70
2018-10-18T17:07:52.795Z,16.63
2018-10-18T17:12:00.208Z,16.59
2018-10-18T17:16:07.522Z,16.59
2018-10-18T17:20:14.536Z,16.48
2018-10-18T17:24:21.604Z,16.40
2018-10-18T17:28:28.676Z,16.29
2018-10-18T17:32:35.878Z,16.24
2018-10-18T17:36:42.953Z,16.12
2018-10-18T17:40:53.046Z,16.08
2018-10-18T17:45:02.952Z,16.05
2018-10-18T17:49:24.970Z,16.00
2018-10-18T17:53:32.108Z,15.96
2018-10-18T17:57:39.565Z,15.85
2018-10-18T18:01:47.141Z,15.74
2018-10-18T18:05:54.207Z,15.71
2018-10-18T18:10:01.310Z,15.63
2018-10-18T18:14:08.624Z,15.56
2018-10-18T18:18:15.921Z,15.47
2018-10-18T18:22:23.187Z,15.45
2018-10-18T18:26:44.761Z,15.42
2018-10-18T18:30:37.610Z,15.39
2018-10-18T18:34:44.716Z,15.37
2018-10-18T18:38:51.905Z,15.23
2018-10-18T18:42:58.929Z,15.26
2018-10-18T18:47:06.053Z,15.13
2018-10-18T18:51:13.205Z,15.09
2018-10-18T18:55:20.215Z,15.05
2018-10-18T18:59:27.254Z,14.95
2018-10-18T19:03:34.300Z,14.85
2018-10-18T19:07:41.397Z,14.86
2018-10-18T19:11:48.581Z,14.84
2018-10-18T19:15:55.785Z,14.76
2018-10-18T19:20:06.258Z,14.76
2018-10-18T19:24:13.751Z,14.73
2018-10-18T19:28:25.968Z,14.63
2018-10-18T19:32:48.677Z,14.57
2018-10-18T19:36:58.403Z,14.59
2018-10-18T19:41:03.787Z,14.50
2018-10-18T19:45:14.503Z,14.48
2018-10-18T19:49:19.354Z,14.46
2018-10-18T19:53:26.776Z,14.32
2018-10-18T19:57:34.253Z,14.28
2018-10-18T20:01:42.085Z,14.29
2018-10-18T20:05:49.540Z,14.22
2018-10-18T20:09:56.753Z,14.21
2018-10-18T20:14:04.061Z,14.13
2018-10-18T20:18:11.990Z,14.14
2018-10-18T20:22:19.526Z,14.10
2018-10-18T20:26:26.927Z,14.13
2018-10-18T20:30:34.056Z,14.10
2018-10-18T20:34:41.403Z,14.11
2018-10-18T20:38:48.610Z,14.07
2018-10-18T20:42:55.679Z,14.12
2018-10-18T20:47:02.812Z,14.23
2018-10-18T20:51:09.938Z,13.98
2018-10-18T20:55:16.957Z,13.96
2018-10-18T20:59:24.044Z,13.86
2018-10-18T21:03:31.046Z,13.84
2018-10-18T21:07:38.105Z,13.81
2018-10-18T21:11:45.181Z,13.69
2018-10-18T21:15:52.673Z,13.58
2018-10-18T21:19:59.805Z,13.54
2018-10-18T21:24:06.753Z,13.55
2018-10-18T21:28:14.019Z,13.41
2018-10-18T21:32:21.131Z,13.35
2018-10-18T21:36:28.220Z,13.25
2018-10-18T21:40:35.367Z,13.28
2018-10-18T21:44:44.614Z,13.29
2018-10-18T21:48:51.680Z,13.21
2018-10-18T21:52:58.842Z,13.22
2018-10-18T21:57:06.457Z,13.11
2018-10-18T22:01:13.436Z,13.07
2018-10-18T22:05:20.577Z,13.09
2018-10-18T22:09:27.621Z,12.97
2018-10-18T22:13:34.816Z,12.97
2018-10-18T22:17:41.874Z,12.90
2018-10-18T22:21:48.896Z,12.89
2018-10-18T22:25:55.956Z,12.92
2018-10-18T22:30:03.075Z,12.94
2018-10-18T22:34:10.209Z,12.88
2018-10-18T22:38:17.236Z,12.79
2018-10-18T22:42:24.294Z,12.77
2018-10-18T22:46:31.323Z,12.75
2018-10-18T22:50:38.326Z,12.72
2018-10-18T22:54:45.321Z,12.68
2018-10-18T22:58:54.678Z,12.59
2018-10-18T23:03:01.860Z,12.54
2018-10-18T23:07:08.924Z,12.58
2018-10-18T23:11:16.040Z,12.54
2018-10-18T23:15:23.031Z,12.52
2018-10-18T23:19:30.136Z,12.45
2018-10-18T23:23:37.190Z,12.46
2018-10-18T23:27:44.205Z,12.41
2018-10-18T23:31:51.196Z,12.40
2018-10-18T23:35:58.230Z,12.34
2018-10-18T23:40:05.352Z,12.34
2018-10-18T23:44:12.395Z,12.30
2018-10-18T23:48:19.551Z,12.30
2018-10-18T23:52:26.483Z,12.32
2018-10-18T23:56:33.511Z,12.28
